Time;durP1;ratioP1;P1;durP2;ratioP2;P2;SDS_P1;SDS_P2;PMS_P1;PMS_P2;Temp;Humidity;BMP_temperature;BMP_pressure;BME280_temperature;BME280_humidity;BME280_pressure;Samples;Min_cycle;Max_cycle;Signal;HPM_P1;HPM_P2
2022/12/31 00:01:19;;;;;;;1.30;1.20;;;13.30;99.90;;;;;;5045782;28;20711;-40
2022/12/31 00:03:45;;;;;;;1.38;1.20;;;13.30;99.90;;;;;;5046842;28;20075;-39
2022/12/31 00:06:16;;;;;;;2.28;1.02;;;13.30;99.90;;;;;;5045082;28;20017;-40
2022/12/31 00:08:43;;;;;;;1.17;1.10;;;13.40;99.90;;;;;;5046590;28;20040;-39
2022/12/31 00:11:09;;;;;;;1.00;0.90;;;13.40;99.90;;;;;;5045688;28;20021;-40
2022/12/31 00:13:35;;;;;;;2.15;0.98;;;13.40;99.90;;;;;;5046079;28;20036;-40
2022/12/31 00:16:10;;;;;;;0.80;0.80;;;13.40;99.90;;;;;;5046792;28;20032;-40
2022/12/31 00:18:36;;;;;;;0.80;0.80;;;13.40;99.90;;;;;;5046970;28;20035;-40
2022/12/31 00:21:07;;;;;;;0.93;0.70;;;13.40;99.90;;;;;;5045932;28;20025;-40
2022/12/31 00:23:32;;;;;;;0.60;0.50;;;13.40;99.90;;;;;;5047732;28;20056;-40
2022/12/31 00:26:23;;;;;;;0.80;0.60;;;13.30;99.90;;;;;;5047122;28;20052;-40
2022/12/31 00:28:50;;;;;;;0.73;0.40;;;13.30;99.90;;;;;;5044426;28;20385;-40
2022/12/31 00:31:20;;;;;;;0.52;0.40;;;13.20;99.90;;;;;;5046489;28;20033;-39
2022/12/31 00:33:46;;;;;;;0.65;0.40;;;13.20;99.90;;;;;;5042745;28;20045;-39
2022/12/31 00:36:15;;;;;;;0.30;0.28;;;13.20;99.90;;;;;;5046227;28;20127;-39
2022/12/31 00:38:42;;;;;;;0.40;0.40;;;13.10;99.90;;;;;;5046231;28;20472;-40
2022/12/31 00:41:09;;;;;;;0.30;0.20;;;13.10;99.90;;;;;;5045416;28;20415;-39
2022/12/31 00:43:35;;;;;;;0.30;0.30;;;13.00;99.90;;;;;;5046219;28;20232;-39
2022/12/31 00:46:02;;;;;;;1.60;0.30;;;13.00;99.90;;;;;;5046336;28;20028;-39
2022/12/31 00:48:28;;;;;;;0.68;0.50;;;13.00;99.90;;;;;;5046053;28;20020;-41
2022/12/31 00:50:54;;;;;;;0.20;0.20;;;13.00;99.90;;;;;;5046566;28;20480;-40
2022/12/31 00:53:20;;;;;;;1.13;0.50;;;13.00;99.90;;;;;;5044710;28;20032;-41
2022/12/31 00:55:46;;;;;;;1.50;0.50;;;12.90;99.90;;;;;;5045863;28;20135;-40
2022/12/31 00:58:12;;;;;;;0.90;0.40;;;12.90;99.90;;;;;;5045540;28;20037;-38
2022/12/31 01:00:37;;;;;;;0.63;0.50;;;12.90;99.90;;;;;;5046090;28;20104;-37
2022/12/31 01:03:04;;;;;;;0.65;0.50;;;12.80;99.90;;;;;;5045005;28;20778;-41
2022/12/31 01:05:31;;;;;;;1.17;0.60;;;12.90;99.90;;;;;;5046238;28;20100;-39
2022/12/31 01:07:57;;;;;;;0.60;0.60;;;12.80;99.90;;;;;;5046472;28;20063;-40
2022/12/31 01:13:06;;;;;;;0.70;0.65;;;12.80;99.90;;;;;;5045255;28;20797;-40
2022/12/31 01:15:34;;;;;;;0.93;0.73;;;12.80;99.90;;;;;;5046120;28;20073;-39
2022/12/31 01:18:00;;;;;;;0.63;0.60;;;12.70;99.90;;;;;;5045064;28;20032;-39
2022/12/31 01:20:26;;;;;;;0.82;0.60;;;12.70;99.90;;;;;;5045934;28;20036;-39
2022/12/31 01:22:51;;;;;;;1.30;0.90;;;12.70;99.90;;;;;;5045396;28;20029;-36
2022/12/31 01:25:17;;;;;;;1.00;0.90;;;12.70;99.90;;;;;;5045046;28;20017;-40
2022/12/31 01:27:45;;;;;;;1.05;0.88;;;12.70;99.90;;;;;;5045599;28;20031;-40
2022/12/31 01:30:11;;;;;;;1.45;0.80;;;12.70;99.90;;;;;;5044093;28;20036;-39
2022/12/31 01:32:37;;;;;;;2.05;0.73;;;12.70;99.90;;;;;;5046107;28;20025;-40
2022/12/31 01:35:03;;;;;;;1.75;0.98;;;12.70;99.90;;;;;;5044614;28;20118;-40
2022/12/31 01:37:28;;;;;;;1.20;0.95;;;12.70;99.90;;;;;;5045170;28;20029;-38
2022/12/31 01:39:54;;;;;;;0.80;0.73;;;12.70;99.90;;;;;;5045544;28;20171;-40
2022/12/31 01:42:19;;;;;;;1.00;0.90;;;12.70;99.90;;;;;;5045104;28;20028;-40
2022/12/31 01:44:50;;;;;;;1.30;1.20;;;12.70;99.90;;;;;;5045318;28;20036;-39
2022/12/31 01:47:20;;;;;;;1.10;1.02;;;12.70;99.90;;;;;;5044854;28;20021;-41
2022/12/31 01:49:55;;;;;;;1.58;1.00;;;12.70;99.90;;;;;;5045478;28;20032;-40
2022/12/31 01:52:36;;;;;;;1.20;1.10;;;12.60;99.90;;;;;;5044077;28;20028;-40
2022/12/31 01:55:23;;;;;;;1.15;1.00;;;12.60;99.90;;;;;;5044605;28;20037;-40
2022/12/31 01:57:51;;;;;;;1.00;0.90;;;12.60;99.90;;;;;;5045187;28;20489;-40
2022/12/31 02:00:16;;;;;;;1.38;1.13;;;12.70;99.90;;;;;;5043494;28;20128;-40
2022/12/31 02:02:42;;;;;;;1.40;0.95;;;12.60;99.90;;;;;;5045231;28;20029;-40
2022/12/31 02:05:44;;;;;;;3.08;1.23;;;12.60;99.90;;;;;;5042227;28;20454;-40
2022/12/31 02:08:10;;;;;;;2.38;1.30;;;12.70;99.90;;;;;;5027823;28;20067;-40
2022/12/31 02:10:36;;;;;;;1.90;1.13;;;12.60;99.90;;;;;;5035188;28;20021;-39
2022/12/31 02:13:02;;;;;;;2.55;1.10;;;12.60;99.90;;;;;;5044235;28;20032;-40
2022/12/31 02:15:42;;;;;;;1.15;0.90;;;12.60;99.90;;;;;;5044506;28;20029;-41
2022/12/31 02:18:14;;;;;;;1.42;1.13;;;12.60;99.90;;;;;;5044468;28;20036;-39
2022/12/31 02:21:11;;;;;;;2.15;1.25;;;12.70;99.90;;;;;;5044205;28;20067;-39
2022/12/31 02:23:54;;;;;;;1.25;1.15;;;12.60;99.90;;;;;;5045043;28;20152;-39
2022/12/31 02:26:32;;;;;;;1.30;1.17;;;12.60;99.90;;;;;;5043371;28;20527;-39
2022/12/31 02:29:18;;;;;;;1.60;1.50;;;12.60;99.90;;;;;;5044759;28;20021;-40
2022/12/31 02:31:56;;;;;;;2.75;1.30;;;12.70;99.90;;;;;;5044613;28;20051;-41
2022/12/31 02:34:46;;;;;;;1.33;1.02;;;12.70;99.90;;;;;;5043681;28;20053;-40
2022/12/31 02:37:14;;;;;;;1.20;0.90;;;12.70;99.90;;;;;;5044136;28;20469;-37
2022/12/31 02:39:41;;;;;;;1.38;0.80;;;12.70;99.90;;;;;;5044668;28;20028;-40
2022/12/31 02:42:09;;;;;;;0.95;0.80;;;12.60;99.90;;;;;;5043666;28;20550;-41
2022/12/31 02:44:36;;;;;;;1.05;0.70;;;12.60;99.90;;;;;;5044372;28;20033;-41
2022/12/31 02:47:08;;;;;;;1.40;1.13;;;12.60;99.90;;;;;;5043829;28;20025;-40
2022/12/31 02:50:11;;;;;;;0.70;0.70;;;12.60;99.90;;;;;;5044119;28;20021;-42
2022/12/31 02:52:59;;;;;;;;;;;12.60;99.90;;;;;;5044625;28;20031;-39
2022/12/31 02:55:45;;;;;;;1.20;0.60;;;12.60;99.90;;;;;;5024009;28;19924;-41
2022/12/31 03:04:32;;;;;;;0.57;0.57;;;12.50;99.90;;;;;;5035022;28;20376;-40
2022/12/31 03:07:12;;;;;;;0.70;0.50;;;12.50;99.90;;;;;;5043878;28;20054;-41
2022/12/31 03:09:38;;;;;;;1.17;0.60;;;12.50;99.90;;;;;;5034769;28;20027;-40
2022/12/31 03:14:54;;;;;;;1.10;0.70;;;12.50;99.90;;;;;;5035855;28;20075;-40
2022/12/31 03:17:23;;;;;;;1.05;0.70;;;12.60;99.90;;;;;;5043001;28;20021;-40
2022/12/31 03:22:37;;;;;;;1.25;0.88;;;12.50;99.90;;;;;;5043450;28;20570;-40
2022/12/31 03:27:57;;;;;;;1.50;0.80;;;12.50;99.90;;;;;;5044965;28;20109;-40
2022/12/31 03:30:24;;;;;;;1.13;1.00;;;12.50;99.90;;;;;;5043257;28;20135;-39
2022/12/31 03:32:50;;;;;;;0.73;0.50;;;12.50;99.90;;;;;;5044378;28;20021;-40
2022/12/31 03:35:19;;;;;;;0.70;0.60;;;12.50;99.90;;;;;;5032661;28;20151;-38
2022/12/31 03:37:45;;;;;;;1.90;0.80;;;12.40;99.90;;;;;;5043797;28;20418;-39
2022/12/31 03:40:12;;;;;;;1.33;0.70;;;12.40;99.90;;;;;;5043995;28;20104;-39
2022/12/31 03:42:38;;;;;;;1.33;0.77;;;12.40;99.90;;;;;;5043939;28;20033;-39
2022/12/31 03:45:04;;;;;;;1.40;0.70;;;12.40;99.90;;;;;;5042171;28;20021;-38
2022/12/31 03:47:30;;;;;;;1.52;1.02;;;12.40;99.90;;;;;;5044108;28;20021;-40
2022/12/31 03:49:56;;;;;;;1.73;0.90;;;12.40;99.90;;;;;;5043470;28;20523;-41
2022/12/31 03:52:21;;;;;;;1.80;1.10;;;12.40;99.90;;;;;;5042538;28;20048;-38
2022/12/31 03:54:47;;;;;;;2.58;1.17;;;12.40;99.90;;;;;;5043693;28;20083;-40
2022/12/31 03:57:15;;;;;;;1.60;1.13;;;12.50;99.90;;;;;;5042687;28;20021;-41
2022/12/31 03:59:41;;;;;;;1.60;1.10;;;12.40;99.90;;;;;;5042756;28;20465;-38
2022/12/31 04:02:06;;;;;;;1.60;1.17;;;12.40;99.90;;;;;;5042862;28;20083;-41
2022/12/31 04:04:32;;;;;;;2.70;1.35;;;12.50;99.90;;;;;;5042805;28;20024;-39
2022/12/31 04:06:58;;;;;;;1.48;1.17;;;12.50;99.90;;;;;;5042970;28;20079;-41
2022/12/31 04:09:23;;;;;;;2.78;1.40;;;12.50;99.90;;;;;;5042908;28;20485;-40
2022/12/31 04:11:49;;;;;;;1.35;1.25;;;12.50;99.90;;;;;;5043209;28;20806;-40
2022/12/31 04:14:16;;;;;;;2.10;1.73;;;12.50;99.90;;;;;;5042971;28;20044;-39
2022/12/31 04:16:42;;;;;;;1.70;1.60;;;12.50;99.90;;;;;;5043493;28;20107;-41
2022/12/31 04:19:08;;;;;;;2.65;2.00;;;12.50;99.90;;;;;;5041704;28;20532;-39
2022/12/31 04:21:33;;;;;;;2.05;1.95;;;12.50;99.90;;;;;;5043388;28;20017;-37
2022/12/31 04:24:00;;;;;;;2.78;2.58;;;12.50;99.90;;;;;;5042720;28;20029;-39
2022/12/31 04:26:26;;;;;;;2.53;2.33;;;12.50;99.90;;;;;;5042521;28;20025;-39
2022/12/31 04:28:51;;;;;;;2.70;2.50;;;12.50;99.90;;;;;;5045796;28;20052;-39
2022/12/31 04:31:17;;;;;;;2.15;2.03;;;12.50;99.90;;;;;;5045941;28;20140;-39
2022/12/31 04:33:42;;;;;;;2.42;2.22;;;12.50;99.90;;;;;;5045926;28;20093;-41
2022/12/31 04:36:08;;;;;;;2.22;2.03;;;12.50;99.90;;;;;;5046755;28;20029;-41
2022/12/31 04:38:34;;;;;;;1.90;1.80;;;12.60;99.90;;;;;;5047043;28;20033;-39
2022/12/31 04:43:49;;;;;;;2.13;2.03;;;12.50;99.90;;;;;;5046741;28;20032;-41
2022/12/31 04:46:17;;;;;;;2.67;2.40;;;12.50;99.90;;;;;;5045789;28;20083;-40
2022/12/31 04:48:42;;;;;;;2.50;2.30;;;12.50;99.90;;;;;;5045801;28;20132;-40
2022/12/31 04:51:08;;;;;;;2.50;2.30;;;12.60;99.90;;;;;;5046113;28;20120;-40
2022/12/31 04:53:34;;;;;;;1.80;1.70;;;12.50;99.90;;;;;;5046685;28;20789;-41
2022/12/31 04:56:00;;;;;;;2.33;2.08;;;12.50;99.90;;;;;;5045057;28;20025;-40
2022/12/31 04:58:25;;;;;;;1.83;1.73;;;12.50;99.90;;;;;;5046233;28;20037;-41
2022/12/31 05:00:53;;;;;;;2.85;2.10;;;12.50;99.90;;;;;;5046253;28;20459;-40
2022/12/31 05:03:19;;;;;;;2.30;2.10;;;12.60;99.90;;;;;;5045781;28;20075;-38
2022/12/31 05:05:45;;;;;;;2.30;2.10;;;12.60;99.90;;;;;;5046122;28;20076;-41
2022/12/31 05:08:12;;;;;;;2.53;2.33;;;12.60;99.90;;;;;;5045272;28;20020;-40
2022/12/31 05:10:45;;;;;;;2.13;1.92;;;12.60;99.90;;;;;;5046026;28;20036;-39
2022/12/31 05:13:11;;;;;;;2.08;1.98;;;12.70;99.90;;;;;;5043093;28;20021;-40
2022/12/31 05:15:36;;;;;;;2.38;2.17;;;12.70;99.90;;;;;;5046145;28;20052;-40
2022/12/31 05:18:03;;;;;;;2.30;2.10;;;12.70;99.90;;;;;;5045688;28;20376;-41
2022/12/31 05:20:29;;;;;;;1.83;1.73;;;12.70;99.90;;;;;;5046564;28;20035;-39
2022/12/31 05:22:54;;;;;;;1.90;1.80;;;12.70;99.90;;;;;;5044893;28;20805;-40
2022/12/31 05:25:20;;;;;;;1.40;1.30;;;12.70;99.90;;;;;;5045389;28;20025;-39
2022/12/31 05:27:46;;;;;;;2.13;1.20;;;12.70;99.90;;;;;;5045724;28;20032;-39
2022/12/31 05:30:12;;;;;;;1.13;1.13;;;12.70;99.90;;;;;;5044576;28;20086;-40
2022/12/31 05:32:38;;;;;;;1.10;1.00;;;12.70;99.90;;;;;;5045261;28;20017;-40
2022/12/31 05:35:04;;;;;;;0.70;0.70;;;12.70;99.90;;;;;;5044390;28;20130;-41
2022/12/31 05:37:30;;;;;;;0.70;0.70;;;12.70;99.90;;;;;;5045290;28;20029;-41
2022/12/31 05:39:56;;;;;;;0.70;0.70;;;12.70;99.90;;;;;;5044291;28;20499;-41
2022/12/31 05:42:22;;;;;;;0.50;0.50;;;12.70;99.90;;;;;;5045408;28;20701;-40
2022/12/31 05:44:48;;;;;;;0.50;0.50;;;12.70;99.90;;;;;;5044999;28;20028;-41
2022/12/31 05:47:14;;;;;;;0.50;0.50;;;12.70;99.90;;;;;;5044613;28;20013;-40
2022/12/31 05:49:40;;;;;;;0.68;0.50;;;12.70;99.90;;;;;;5045292;28;20138;-38
2022/12/31 05:52:05;;;;;;;0.55;0.50;;;12.80;99.90;;;;;;5044449;28;20029;-39
2022/12/31 05:54:35;;;;;;;0.50;0.50;;;12.80;99.90;;;;;;5045045;28;20120;-41
2022/12/31 05:57:01;;;;;;;0.40;0.40;;;12.80;99.90;;;;;;5044828;28;20025;-41
2022/12/31 05:59:27;;;;;;;0.50;0.50;;;12.80;99.90;;;;;;5043824;28;20021;-41
2022/12/31 06:01:52;;;;;;;0.40;0.40;;;12.80;99.90;;;;;;5045250;28;20528;-40
2022/12/31 06:04:18;;;;;;;0.40;0.40;;;12.80;99.90;;;;;;5043783;28;20033;-40
2022/12/31 06:06:43;;;;;;;0.43;0.43;;;12.80;99.90;;;;;;5045628;28;20029;-40
2022/12/31 06:09:09;;;;;;;0.40;0.40;;;12.80;99.90;;;;;;5044251;28;20025;-40
2022/12/31 06:11:35;;;;;;;0.35;0.35;;;12.80;99.90;;;;;;5044065;28;20032;-40
2022/12/31 06:14:01;;;;;;;0.40;0.40;;;12.80;99.90;;;;;;5044248;28;20033;-40
2022/12/31 06:16:26;;;;;;;0.40;0.40;;;12.80;99.90;;;;;;5045181;28;20029;-41
2022/12/31 06:18:52;;;;;;;0.35;0.35;;;12.80;99.90;;;;;;5044563;28;20400;-39
2022/12/31 06:21:19;;;;;;;0.40;0.40;;;12.80;99.90;;;;;;5044898;28;20075;-40
2022/12/31 06:23:51;;;;;;;0.50;0.50;;;12.80;99.90;;;;;;5044203;28;20052;-39
2022/12/31 06:26:16;;;;;;;0.50;0.50;;;12.90;99.90;;;;;;5044059;28;20400;-41
2022/12/31 06:28:42;;;;;;;0.45;0.45;;;12.90;99.90;;;;;;5044857;28;20016;-41
2022/12/31 06:31:11;;;;;;;0.60;0.60;;;12.90;99.90;;;;;;5033072;28;20032;-40
2022/12/31 06:33:37;;;;;;;0.60;0.60;;;12.90;99.90;;;;;;5043275;28;20133;-42
2022/12/31 06:36:05;;;;;;;0.55;0.55;;;12.90;99.90;;;;;;5043835;28;20033;-40
2022/12/31 06:38:32;;;;;;;0.50;0.50;;;12.90;99.90;;;;;;5044014;28;20135;-41
2022/12/31 06:41:02;;;;;;;0.40;0.40;;;12.90;99.90;;;;;;5043254;28;20032;-41
2022/12/31 06:43:28;;;;;;;0.40;0.40;;;12.90;99.90;;;;;;5045078;28;20059;-39
2022/12/31 06:45:53;;;;;;;0.20;0.20;;;12.90;99.90;;;;;;5044473;28;20052;-37
2022/12/31 06:48:19;;;;;;;0.50;0.43;;;12.90;99.90;;;;;;5043108;28;20055;-40
2022/12/31 06:50:44;;;;;;;0.32;0.32;;;13.00;99.90;;;;;;5044029;28;20048;-40
2022/12/31 06:53:10;;;;;;;0.40;0.20;;;13.00;99.90;;;;;;5043831;28;20029;-38
2022/12/31 06:55:36;;;;;;;0.20;0.20;;;13.10;99.90;;;;;;5043173;28;20032;-37
2022/12/31 06:58:02;;;;;;;0.30;0.20;;;13.10;99.90;;;;;;5043787;28;20013;-41
2022/12/31 07:00:27;;;;;;;0.40;0.40;;;13.10;99.90;;;;;;5043643;28;20032;-40
2022/12/31 07:03:18;;;;;;;0.40;0.40;;;13.20;99.90;;;;;;5044135;28;20074;-40
2022/12/31 07:05:52;;;;;;;0.30;0.30;;;13.30;99.90;;;;;;5044288;28;20154;-39
2022/12/31 07:08:23;;;;;;;0.25;0.25;;;13.40;99.90;;;;;;5043050;28;20044;-40
2022/12/31 07:11:08;;;;;;;0.40;0.40;;;13.40;99.90;;;;;;5043549;28;20032;-39
2022/12/31 07:13:56;;;;;;;0.40;0.40;;;13.40;99.90;;;;;;5043836;28;20102;-40
2022/12/31 07:16:27;;;;;;;0.50;0.50;;;13.50;99.90;;;;;;5043147;28;20037;-39
2022/12/31 07:19:30;;;;;;;0.30;0.30;;;13.50;99.90;;;;;;5043720;28;20040;-40
2022/12/31 07:21:57;;;;;;;0.40;0.40;;;13.60;99.90;;;;;;5042684;28;20039;-40
2022/12/31 07:24:23;;;;;;;0.50;0.40;;;13.60;99.90;;;;;;5043314;28;20134;-41
2022/12/31 07:27:11;;;;;;;0.40;0.40;;;13.60;99.90;;;;;;5044201;28;20075;-41
2022/12/31 07:30:01;;;;;;;0.40;0.40;;;13.60;99.90;;;;;;5023403;28;20098;-41
2022/12/31 07:32:38;;;;;;;1.27;0.55;;;13.60;99.90;;;;;;5043233;28;20381;-40
2022/12/31 07:35:14;;;;;;;0.57;0.40;;;13.60;99.90;;;;;;5043749;28;20091;-41
2022/12/31 07:38:00;;;;;;;0.50;0.50;;;13.60;99.90;;;;;;5043216;28;20631;-38
2022/12/31 07:40:37;;;;;;;0.70;0.60;;;13.60;99.90;;;;;;5043674;28;20699;-40
2022/12/31 07:43:37;;;;;;;2.33;0.70;;;13.60;99.90;;;;;;5042210;28;20052;-41
2022/12/31 07:46:18;;;;;;;0.70;0.70;;;13.70;99.90;;;;;;5042929;28;20534;-40
2022/12/31 07:48:43;;;;;;;0.60;0.60;;;13.60;99.90;;;;;;5043094;28;20028;-38
2022/12/31 07:51:10;;;;;;;0.90;0.52;;;13.60;99.90;;;;;;5042419;28;20029;-39
2022/12/31 07:53:36;;;;;;;0.40;0.40;;;13.70;99.90;;;;;;5043281;28;20025;-40
2022/12/31 07:56:05;;;;;;;0.60;0.60;;;13.70;99.90;;;;;;5043277;28;20036;-41
2022/12/31 07:58:40;;;;;;;0.60;0.60;;;13.70;99.90;;;;;;5042072;28;20021;-41
2022/12/31 08:01:14;;;;;;;0.68;0.68;;;13.70;99.90;;;;;;5042808;28;20036;-40
2022/12/31 08:03:58;;;;;;;0.63;0.60;;;13.80;99.90;;;;;;5044808;28;20032;-40
2022/12/31 08:06:49;;;;;;;0.70;0.70;;;13.80;99.90;;;;;;5047593;28;20041;-40
2022/12/31 08:09:29;;;;;;;0.80;0.63;;;13.80;99.90;;;;;;5046029;28;20032;-41
2022/12/31 08:11:57;;;;;;;1.02;0.40;;;13.80;99.90;;;;;;5046406;28;20148;-41
2022/12/31 08:14:23;;;;;;;0.65;0.40;;;13.80;99.90;;;;;;5046571;28;20128;-39
2022/12/31 08:16:49;;;;;;;0.40;0.30;;;13.80;99.90;;;;;;5047321;28;20123;-40
2022/12/31 08:19:27;;;;;;;0.60;0.20;;;13.80;99.90;;;;;;5046028;28;20029;-40
2022/12/31 08:22:22;;;;;;;0.38;0.20;;;13.80;99.90;;;;;;5047326;28;20032;-40
2022/12/31 08:25:07;;;;;;;0.35;0.28;;;13.70;99.90;;;;;;5046831;28;20033;-38
2022/12/31 08:27:56;;;;;;;0.43;0.30;;;13.60;99.90;;;;;;5046782;28;20040;-40
2022/12/31 08:30:25;;;;;;;0.30;0.30;;;13.60;99.90;;;;;;5032055;28;20155;-40
2022/12/31 08:33:13;;;;;;;0.68;0.30;;;13.50;99.90;;;;;;5045817;28;20451;-39
2022/12/31 08:35:44;;;;;;;0.85;0.30;;;13.50;99.90;;;;;;5038318;28;20044;-40
2022/12/31 08:38:51;;;;;;;1.90;0.40;;;13.50;99.90;;;;;;5046315;28;20108;-41
2022/12/31 08:41:29;;;;;;;0.55;0.30;;;13.50;99.90;;;;;;5045792;28;20468;-37
2022/12/31 08:44:22;;;;;;;0.82;0.30;;;13.50;99.90;;;;;;5046587;28;20394;-41
2022/12/31 08:47:09;;;;;;;1.20;0.40;;;13.50;99.90;;;;;;5046211;28;20025;-41
2022/12/31 08:49:35;;;;;;;1.15;0.40;;;13.50;99.90;;;;;;5046229;28;20033;-39
2022/12/31 08:52:01;;;;;;;1.17;0.30;;;13.40;99.90;;;;;;5046103;28;20074;-40
2022/12/31 08:54:28;;;;;;;0.28;0.28;;;13.40;99.90;;;;;;5045975;28;20121;-42
2022/12/31 08:57:23;;;;;;;1.23;0.40;;;13.40;99.90;;;;;;5046275;28;20029;-39
2022/12/31 09:00:04;;;;;;;1.20;0.20;;;13.40;99.90;;;;;;5046219;28;20021;-39
2022/12/31 09:02:49;;;;;;;0.82;0.38;;;13.40;99.90;;;;;;5026931;28;20464;-40
2022/12/31 09:05:24;;;;;;;0.73;0.35;;;13.40;99.90;;;;;;5042185;28;20036;-39
2022/12/31 09:08:22;;;;;;;0.65;0.38;;;13.40;99.90;;;;;;5025897;28;20018;-40
2022/12/31 09:11:16;;;;;;;1.33;0.90;;;13.40;99.90;;;;;;5045546;28;20269;-40
2022/12/31 09:14:00;;;;;;;3.17;1.98;;;13.50;99.90;;;;;;5045324;28;20029;-41
2022/12/31 09:16:44;;;;;;;2.97;2.20;;;13.50;99.90;;;;;;5043831;28;20037;-41
2022/12/31 09:19:10;;;;;;;4.60;3.47;;;13.50;99.90;;;;;;5046087;28;20025;-41
2022/12/31 09:21:37;;;;;;;5.25;4.03;;;13.50;99.90;;;;;;5045617;28;20028;-40
2022/12/31 09:24:04;;;;;;;6.38;4.63;;;13.50;99.90;;;;;;5045554;28;20025;-42
2022/12/31 09:26:50;;;;;;;6.20;3.95;;;13.60;99.90;;;;;;5046221;28;20025;-41
2022/12/31 09:29:49;;;;;;;4.90;3.20;;;13.60;99.90;;;;;;5044965;28;20033;-41
2022/12/31 09:32:24;;;;;;;3.53;2.35;;;13.60;99.90;;;;;;5034849;28;20033;-41
2022/12/31 09:35:06;;;;;;;2.28;1.48;;;13.60;99.90;;;;;;5045004;28;20045;-41
2022/12/31 09:37:54;;;;;;;1.38;1.10;;;13.70;99.90;;;;;;5035445;28;20036;-40
2022/12/31 09:40:46;;;;;;;3.10;0.93;;;13.70;99.90;;;;;;5045033;28;20453;-40
2022/12/31 09:43:51;;;;;;;2.03;0.60;;;13.70;99.90;;;;;;5044375;28;20033;-39
2022/12/31 09:46:28;;;;;;;0.80;0.63;;;13.80;99.90;;;;;;5044985;28;20123;-40
2022/12/31 09:49:12;;;;;;;1.73;0.70;;;13.80;99.90;;;;;;5045799;28;20152;-41
2022/12/31 09:52:07;;;;;;;0.93;0.60;;;13.80;99.90;;;;;;5044859;28;20025;-41
2022/12/31 09:54:54;;;;;;;0.70;0.52;;;13.80;99.90;;;;;;5017938;28;20088;-41
2022/12/31 09:57:38;;;;;;;0.70;0.40;;;13.90;99.90;;;;;;5043518;28;20029;-40
2022/12/31 10:00:29;;;;;;;1.33;0.60;;;14.00;99.90;;;;;;5044874;28;20020;-41
2022/12/31 10:03:17;;;;;;;2.22;0.88;;;14.00;99.90;;;;;;5042108;28;20036;-40
2022/12/31 10:06:16;;;;;;;1.60;0.80;;;14.10;99.90;;;;;;5044793;28;20029;-40
2022/12/31 10:08:48;;;;;;;1.17;0.80;;;14.20;99.90;;;;;;5037500;28;20082;-40
2022/12/31 10:11:43;;;;;;;1.85;0.90;;;14.20;99.90;;;;;;5043931;28;20016;-39
2022/12/31 10:14:43;;;;;;;1.70;0.93;;;14.40;99.90;;;;;;5044071;28;20439;-39
2022/12/31 10:17:45;;;;;;;2.58;1.00;;;14.40;99.90;;;;;;5044400;28;20024;-40
2022/12/31 10:20:35;;;;;;;1.40;0.80;;;14.50;99.90;;;;;;5024993;28;20050;-41
2022/12/31 10:23:19;;;;;;;1.33;0.80;;;14.50;99.90;;;;;;5042526;28;20087;-40
2022/12/31 10:26:10;;;;;;;1.15;0.80;;;14.60;99.90;;;;;;5043694;28;20029;-40
2022/12/31 10:29:08;;;;;;;1.85;0.70;;;14.70;99.90;;;;;;5044050;28;20488;-41
2022/12/31 10:31:34;;;;;;;2.85;0.95;;;14.70;99.90;;;;;;5044066;28;20093;-41
2022/12/31 10:34:45;;;;;;;2.05;0.80;;;14.80;99.90;;;;;;5044332;28;20128;-42
2022/12/31 10:37:22;;;;;;;1.58;0.98;;;14.80;99.90;;;;;;5031607;28;20045;-39
2022/12/31 10:40:13;;;;;;;1.85;1.02;;;14.90;99.90;;;;;;5043753;28;20481;-38
2022/12/31 10:42:57;;;;;;;4.80;3.65;;;15.00;99.90;;;;;;5044688;28;20071;-39
2022/12/31 10:45:50;;;;;;;7.75;6.95;;;15.00;99.90;;;;;;5043984;28;20063;-42
2022/12/31 10:48:53;;;;;;;3.97;2.85;;;15.00;99.90;;;;;;5044310;28;20075;-39
2022/12/31 10:51:52;;;;;;;3.03;1.73;;;15.10;99.90;;;;;;5023978;28;20029;-40
2022/12/31 10:54:33;;;;;;;1.42;0.98;;;15.10;99.90;;;;;;5042301;28;20028;-38
2022/12/31 10:57:25;;;;;;;1.80;0.80;;;15.10;99.90;;;;;;5043971;28;20485;-41
2022/12/31 11:00:19;;;;;;;2.08;0.80;;;15.10;99.90;;;;;;5031500;28;20071;-40
2022/12/31 11:03:24;;;;;;;2.65;1.00;;;15.20;99.90;;;;;;5044362;28;20021;-41
2022/12/31 11:05:54;;;;;;;1.50;0.63;;;15.20;99.90;;;;;;5014331;28;20088;-41
2022/12/31 11:08:43;;;;;;;4.75;1.20;;;15.20;99.90;;;;;;5019671;28;20117;-41
2022/12/31 11:11:28;;;;;;;2.20;1.00;;;15.20;99.90;;;;;;5035653;28;20127;-39
2022/12/31 11:14:30;;;;;;;3.00;1.45;;;15.30;99.90;;;;;;5043141;28;20021;-41
2022/12/31 11:17:29;;;;;;;1.65;1.10;;;15.20;99.90;;;;;;5043845;28;20192;-39
2022/12/31 11:20:36;;;;;;;3.20;0.90;;;15.20;99.90;;;;;;5044213;28;20065;-41
2022/12/31 11:23:31;;;;;;;3.13;1.10;;;15.20;99.90;;;;;;5042221;28;20032;-40
2022/12/31 11:26:07;;;;;;;1.27;0.70;;;15.30;99.90;;;;;;5037771;28;20549;-41
2022/12/31 11:29:07;;;;;;;3.33;1.20;;;15.30;99.90;;;;;;5042736;28;20559;-37
2022/12/31 11:31:52;;;;;;;2.25;0.70;;;15.20;99.90;;;;;;5036012;28;20025;-38
2022/12/31 11:34:46;;;;;;;1.98;0.80;;;15.30;99.90;;;;;;5042789;28;20048;-40
2022/12/31 11:37:51;;;;;;;1.23;0.90;;;15.30;99.90;;;;;;5044892;28;20025;-41
2022/12/31 11:40:26;;;;;;;1.88;0.80;;;15.30;99.90;;;;;;5046675;28;20602;-40
2022/12/31 11:42:58;;;;;;;2.85;1.13;;;15.40;99.90;;;;;;5047422;28;20106;-41
2022/12/31 11:46:06;;;;;;;2.90;1.00;;;15.40;99.90;;;;;;5047574;28;20021;-41
2022/12/31 11:48:36;;;;;;;1.90;0.88;;;15.50;99.90;;;;;;5027782;28;20053;-39
2022/12/31 11:51:34;;;;;;;2.85;1.20;;;15.50;99.90;;;;;;5045571;28;20028;-40
2022/12/31 11:54:44;;;;;;;2.25;0.90;;;15.50;99.90;;;;;;5047269;28;20025;-40
2022/12/31 11:57:36;;;;;;;4.57;1.52;;;15.50;99.90;;;;;;5036612;28;20046;-40
2022/12/31 12:00:37;;;;;;;2.70;1.20;;;15.50;99.90;;;;;;5046713;28;20079;-40
2022/12/31 12:03:05;;;;;;;2.47;1.20;;;15.60;99.90;;;;;;5041393;28;20048;-41
2022/12/31 12:05:32;;;;;;;2.10;1.27;;;15.60;99.90;;;;;;5047588;28;20024;-40
2022/12/31 12:07:58;;;;;;;3.17;1.20;;;15.60;99.90;;;;;;5047013;28;20041;-40
2022/12/31 12:10:30;;;;;;;3.47;1.15;;;15.70;99.90;;;;;;5046186;28;20023;-39
2022/12/31 12:12:57;;;;;;;2.00;1.02;;;15.70;99.90;;;;;;5047838;28;20327;-39
2022/12/31 12:15:26;;;;;;;4.63;1.30;;;15.80;99.90;;;;;;5046670;28;20083;-40
2022/12/31 12:17:55;;;;;;;2.97;1.13;;;15.80;99.90;;;;;;5046389;28;20753;-40
2022/12/31 12:20:52;;;;;;;2.53;0.93;;;15.80;99.90;;;;;;5046350;28;20032;-42
2022/12/31 12:23:25;;;;;;;2.42;0.93;;;15.90;99.90;;;;;;5037492;28;20124;-41
2022/12/31 12:25:51;;;;;;;3.13;1.30;;;15.80;99.90;;;;;;5046233;28;20573;-40
2022/12/31 12:28:23;;;;;;;4.28;1.10;;;15.80;99.90;;;;;;5046685;28;20116;-41
2022/12/31 12:31:04;;;;;;;3.10;1.70;;;15.80;99.90;;;;;;5046648;28;20477;-41
2022/12/31 12:33:41;;;;;;;2.65;1.10;;;15.80;99.90;;;;;;5037901;28;20052;-41
2022/12/31 12:36:11;;;;;;;3.03;1.40;;;15.80;99.90;;;;;;5045725;28;20048;-41
2022/12/31 12:38:37;;;;;;;3.13;1.17;;;15.70;99.90;;;;;;5046299;28;20821;-37
2022/12/31 12:41:06;;;;;;;3.63;1.60;;;15.70;99.90;;;;;;5045806;28;20455;-38
2022/12/31 12:43:34;;;;;;;3.20;1.58;;;15.70;99.90;;;;;;5046893;28;20021;-37
2022/12/31 12:46:03;;;;;;;4.82;1.40;;;15.70;99.90;;;;;;5045607;28;20053;-40
2022/12/31 12:48:44;;;;;;;1.88;1.00;;;15.60;99.90;;;;;;5045608;28;20463;-40
2022/12/31 12:51:35;;;;;;;2.53;1.20;;;15.60;99.90;;;;;;5045622;28;20495;-39
2022/12/31 12:54:24;;;;;;;3.40;1.35;;;15.60;99.90;;;;;;5034400;28;20025;-40
2022/12/31 12:57:11;;;;;;;4.15;1.15;;;15.60;99.90;;;;;;5046367;28;20116;-41
2022/12/31 13:00:02;;;;;;;2.35;1.10;;;15.50;99.90;;;;;;5045950;28;20036;-40
2022/12/31 13:03:04;;;;;;;3.53;1.35;;;15.60;99.90;;;;;;5045984;28;20040;-41
2022/12/31 13:05:46;;;;;;;3.00;1.33;;;15.60;99.90;;;;;;5046109;28;20033;-39
2022/12/31 13:08:50;;;;;;;4.00;1.33;;;15.50;99.90;;;;;;5044907;28;20017;-39
2022/12/31 13:11:42;;;;;;;3.10;1.10;;;15.60;99.90;;;;;;5025953;28;20036;-40
2022/12/31 13:14:23;;;;;;;3.33;1.80;;;15.60;99.90;;;;;;5044226;28;20656;-40
2022/12/31 13:17:02;;;;;;;4.50;1.80;;;15.60;99.90;;;;;;5046108;28;20503;-40
2022/12/31 13:19:37;;;;;;;3.63;1.30;;;15.60;99.90;;;;;;5043211;28;20025;-41
2022/12/31 13:22:18;;;;;;;4.40;1.40;;;15.60;99.90;;;;;;5045309;28;20029;-39
2022/12/31 13:25:03;;;;;;;2.92;1.10;;;15.60;99.90;;;;;;5044162;28;20374;-39
2022/12/31 13:27:43;;;;;;;3.10;1.38;;;15.60;99.90;;;;;;5045217;28;20032;-40
2022/12/31 13:30:17;;;;;;;2.20;1.48;;;15.60;99.90;;;;;;5044719;28;20564;-39
2022/12/31 13:32:48;;;;;;;4.50;1.83;;;15.60;99.90;;;;;;5046027;28;20028;-39
2022/12/31 13:35:35;;;;;;;2.80;1.35;;;15.60;99.90;;;;;;5044044;28;20072;-41
2022/12/31 13:38:05;;;;;;;3.25;1.55;;;15.60;99.90;;;;;;5044710;28;20032;-40
2022/12/31 13:41:00;;;;;;;3.53;1.30;;;15.60;99.90;;;;;;5034942;28;20449;-40
2022/12/31 13:43:45;;;;;;;5.50;1.40;;;15.60;99.90;;;;;;5040382;28;20052;-36
2022/12/31 13:46:36;;;;;;;3.40;1.17;;;15.60;99.90;;;;;;5044542;28;20388;-39
2022/12/31 13:49:11;;;;;;;2.63;1.30;;;15.60;99.90;;;;;;5044244;28;20098;-42
2022/12/31 13:51:48;;;;;;;3.45;1.20;;;15.50;99.90;;;;;;5046064;28;20029;-38